createdAt,value
2018-01-28T00:00:33.958Z,1019.16
2018-01-28T00:01:09.153Z,1019.13
2018-01-28T00:01:44.338Z,1018.96
2018-01-28T00:02:19.633Z,1019.07
2018-01-28T00:02:55.124Z,1019.14
2018-01-28T00:03:30.511Z,1018.96
2018-01-28T00:04:05.932Z,1019.02
2018-01-28T00:04:41.155Z,1018.95
2018-01-28T00:05:16.354Z,1019.01
2018-01-28T00:05:51.380Z,1018.98
2018-01-28T00:06:26.768Z,1018.87
2018-01-28T00:07:02.061Z,1018.89
2018-01-28T00:07:37.557Z,1019.14
2018-01-28T00:08:12.846Z,1018.93
2018-01-28T00:08:48.346Z,1018.87
2018-01-28T00:09:23.858Z,1018.97
2018-01-28T00:09:59.471Z,1019.01
2018-01-28T00:10:34.971Z,1018.91
2018-01-28T00:11:10.182Z,1019.01
2018-01-28T00:11:45.474Z,1018.90
2018-01-28T00:12:20.859Z,1018.83
2018-01-28T00:12:56.178Z,1018.85
2018-01-28T00:13:31.575Z,1018.82
2018-01-28T00:14:06.759Z,1018.85
2018-01-28T00:14:42.049Z,1018.82
2018-01-28T00:15:17.778Z,1018.74
2018-01-28T00:15:52.977Z,1018.81
2018-01-28T00:16:28.545Z,1018.71
2018-01-28T00:17:03.621Z,1018.75
2018-01-28T00:17:39.022Z,1018.73
2018-01-28T00:18:14.612Z,1018.63
2018-01-28T00:18:49.908Z,1018.78
2018-01-28T00:19:25.592Z,1018.73
2018-01-28T00:20:00.815Z,1018.89
2018-01-28T00:20:36.332Z,1018.81
2018-01-28T00:21:11.523Z,1018.83
2018-01-28T00:21:47.010Z,1018.87
2018-01-28T00:22:22.548Z,1018.84
2018-01-28T00:22:57.848Z,1018.86
2018-01-28T00:23:33.129Z,1018.80
2018-01-28T00:24:08.622Z,1018.86
2018-01-28T00:24:43.905Z,1018.79
2018-01-28T00:25:19.731Z,1018.82
2018-01-28T00:25:54.986Z,1018.86
2018-01-28T00:26:30.176Z,1018.85
2018-01-28T00:27:05.602Z,1018.82
2018-01-28T00:27:41.084Z,1018.95
2018-01-28T00:28:16.376Z,1018.87
2018-01-28T00:28:51.871Z,1018.93
2018-01-28T00:29:26.859Z,1018.95
2018-01-28T00:30:02.049Z,1018.92
2018-01-28T00:30:37.547Z,1018.82
2018-01-28T00:31:13.002Z,1018.78
2018-01-28T00:31:48.592Z,1019.07
2018-01-28T00:32:23.891Z,1018.89
2018-01-28T00:32:58.978Z,1018.88
2018-01-28T00:33:34.272Z,1018.88
2018-01-28T00:34:09.557Z,1018.81
2018-01-28T00:34:45.052Z,1018.86
2018-01-28T00:35:20.577Z,1018.85
2018-01-28T00:35:56.067Z,1018.91
2018-01-28T00:36:31.432Z,1018.75
2018-01-28T00:37:06.515Z,1018.76
2018-01-28T00:37:41.820Z,1018.71
2018-01-28T00:38:17.028Z,1018.69
2018-01-28T00:38:52.619Z,1018.76
2018-01-28T00:39:28.209Z,1018.73
2018-01-28T00:40:03.617Z,1018.76
2018-01-28T00:40:39.306Z,1018.82
2018-01-28T00:41:14.594Z,1018.87
2018-01-28T00:41:49.854Z,1018.89
2018-01-28T00:42:25.141Z,1018.84
2018-01-28T00:43:00.342Z,1018.96
2018-01-28T00:43:35.630Z,1018.67
2018-01-28T00:44:10.927Z,1018.65
2018-01-28T00:44:47.524Z,1018.73
2018-01-28T00:45:22.910Z,1018.53
2018-01-28T00:45:58.239Z,1018.56
2018-01-28T00:46:33.339Z,1018.63
2018-01-28T00:47:08.989Z,1018.60
2018-01-28T00:47:44.496Z,1018.69
2018-01-28T00:48:19.907Z,1018.65
2018-01-28T00:48:55.217Z,1018.65
2018-01-28T00:49:30.721Z,1018.66
2018-01-28T00:50:06.031Z,1018.66
2018-01-28T00:50:41.848Z,1018.63
2018-01-28T00:51:17.490Z,1018.59
2018-01-28T00:51:52.698Z,1018.57
2018-01-28T00:52:28.231Z,1018.54
2018-01-28T00:53:03.541Z,1018.50
2018-01-28T00:53:38.845Z,1018.44
2018-01-28T00:54:14.056Z,1018.50
2018-01-28T00:54:49.664Z,1018.46
2018-01-28T00:55:24.869Z,1018.46
2018-01-28T00:56:00.085Z,1018.53
2018-01-28T00:56:35.412Z,1018.43
2018-01-28T00:57:10.619Z,1018.47
2018-01-28T00:57:45.880Z,1018.46
2018-01-28T00:58:20.981Z,1018.44
2018-01-28T00:58:56.193Z,1018.45
2018-01-28T00:59:31.507Z,1018.46
2018-01-28T01:00:06.841Z,1018.48
2018-01-28T01:00:43.646Z,1018.41
2018-01-28T01:01:19.061Z,1018.44
2018-01-28T01:01:54.466Z,1018.45
2018-01-28T01:02:29.776Z,1018.48
2018-01-28T01:03:05.114Z,1018.53
2018-01-28T01:03:40.522Z,1018.39
2018-01-28T01:04:15.931Z,1018.42
2018-01-28T01:04:51.129Z,1018.55
2018-01-28T01:05:26.450Z,1018.49
2018-01-28T01:06:01.981Z,1018.38
2018-01-28T01:06:37.684Z,1018.50
2018-01-28T01:07:13.402Z,1018.42
2018-01-28T01:07:48.707Z,1018.41
2018-01-28T01:08:24.153Z,1018.39
2018-01-28T01:08:59.752Z,1018.40
2018-01-28T01:09:34.956Z,1018.69
2018-01-28T01:10:10.361Z,1018.44
2018-01-28T01:10:45.668Z,1018.45
2018-01-28T01:11:21.196Z,1018.55
2018-01-28T01:11:56.302Z,1018.48
2018-01-28T01:12:31.437Z,1018.49
2018-01-28T01:13:06.884Z,1018.42
2018-01-28T01:13:42.434Z,1018.52
2018-01-28T01:14:17.828Z,1018.55
2018-01-28T01:14:53.336Z,1018.47
2018-01-28T01:15:28.685Z,1018.53
2018-01-28T01:16:03.899Z,1018.63
2018-01-28T01:16:39.240Z,1018.59
2018-01-28T01:17:14.438Z,1018.65
2018-01-28T01:17:49.556Z,1018.69
2018-01-28T01:18:24.761Z,1018.59
2018-01-28T01:19:00.105Z,1018.63
2018-01-28T01:19:35.911Z,1018.67
2018-01-28T01:20:11.652Z,1018.60
2018-01-28T01:20:47.222Z,1018.66
2018-01-28T01:21:22.930Z,1018.68
2018-01-28T01:21:58.473Z,1018.57
2018-01-28T01:22:33.778Z,1018.66
2018-01-28T01:23:09.297Z,1018.79
2018-01-28T01:23:44.799Z,1018.66
2018-01-28T01:24:20.537Z,1018.67
2018-01-28T01:24:56.146Z,1018.60
2018-01-28T01:25:31.560Z,1018.71
2018-01-28T01:26:06.963Z,1018.78
2018-01-28T01:26:42.265Z,1018.75
2018-01-28T01:27:17.875Z,1018.69
2018-01-28T01:27:53.481Z,1018.77
2018-01-28T01:28:29.137Z,1018.67
2018-01-28T01:29:04.556Z,1018.70
2018-01-28T01:29:40.287Z,1018.61
2018-01-28T01:30:15.591Z,1018.80
2018-01-28T01:30:50.995Z,1018.80
2018-01-28T01:31:26.329Z,1018.72
2018-01-28T01:32:01.531Z,1018.82
2018-01-28T01:32:36.643Z,1018.78
2018-01-28T01:33:12.047Z,1018.79
2018-01-28T01:33:47.358Z,1018.80
2018-01-28T01:34:22.685Z,1018.85
2018-01-28T01:34:58.190Z,1018.76
2018-01-28T01:35:33.502Z,1018.65
2018-01-28T01:36:08.933Z,1018.57
2018-01-28T01:36:44.564Z,1018.63
2018-01-28T01:37:19.883Z,1018.67
2018-01-28T01:37:55.539Z,1018.71
2018-01-28T01:38:30.844Z,1018.80
2018-01-28T01:39:06.365Z,1018.80
2018-01-28T01:39:41.716Z,1018.84
2018-01-28T01:40:16.815Z,1018.80
2018-01-28T01:40:52.025Z,1018.72
2018-01-28T01:41:27.534Z,1018.75
2018-01-28T01:42:02.862Z,1018.67
2018-01-28T01:42:38.378Z,1018.83
2018-01-28T01:43:13.779Z,1018.83
2018-01-28T01:43:49.186Z,1018.85
2018-01-28T01:44:24.519Z,1018.78
2018-01-28T01:44:59.945Z,1018.74
2018-01-28T01:45:35.257Z,1018.78
2018-01-28T01:46:10.556Z,1018.82
2018-01-28T01:46:45.874Z,1018.89
2018-01-28T01:47:21.183Z,1018.73
2018-01-28T01:47:56.819Z,1018.68
2018-01-28T01:48:32.043Z,1018.75
2018-01-28T01:49:07.644Z,1018.77
2018-01-28T01:49:43.090Z,1018.74
2018-01-28T01:50:18.222Z,1018.67
2018-01-28T01:50:53.638Z,1018.58
2018-01-28T01:51:28.787Z,1018.63
2018-01-28T01:52:04.090Z,1018.63
2018-01-28T01:52:39.503Z,1018.70
2018-01-28T01:53:14.855Z,1018.59
2018-01-28T01:53:50.069Z,1018.57
2018-01-28T01:54:25.582Z,1018.58
2018-01-28T01:55:01.213Z,1018.65
2018-01-28T01:55:36.519Z,1018.60
2018-01-28T01:56:11.950Z,1018.50
2018-01-28T01:56:47.186Z,1018.51
2018-01-28T01:57:22.582Z,1018.56
2018-01-28T01:57:57.912Z,1018.43
2018-01-28T01:58:33.246Z,1018.59
2018-01-28T01:59:08.510Z,1018.55
2018-01-28T01:59:43.609Z,1018.51
2018-01-28T02:00:19.245Z,1018.56
2018-01-28T02:00:54.570Z,1018.44
2018-01-28T02:01:30.180Z,1018.45
2018-01-28T02:02:05.649Z,1018.43
2018-01-28T02:02:41.245Z,1018.44
2018-01-28T02:03:16.465Z,1018.45
2018-01-28T02:03:51.866Z,1018.31
2018-01-28T02:04:27.075Z,1018.40
2018-01-28T02:05:02.272Z,1018.45
2018-01-28T02:05:37.713Z,1018.46
2018-01-28T02:06:12.921Z,1018.53
2018-01-28T02:06:48.149Z,1018.52
2018-01-28T02:07:23.575Z,1018.48
2018-01-28T02:07:59.093Z,1018.62
2018-01-28T02:08:34.300Z,1018.56
2018-01-28T02:09:09.707Z,1018.48
2018-01-28T02:09:44.912Z,1018.55
2018-01-28T02:10:20.524Z,1018.63
2018-01-28T02:10:56.264Z,1018.57
2018-01-28T02:11:31.872Z,1018.65
2018-01-28T02:12:07.296Z,1018.71
2018-01-28T02:12:42.505Z,1018.60
2018-01-28T02:13:17.711Z,1018.64
2018-01-28T02:13:53.019Z,1018.63
2018-01-28T02:14:28.340Z,1018.54
2018-01-28T02:15:03.752Z,1018.55
2018-01-28T02:15:39.566Z,1018.58
2018-01-28T02:16:14.900Z,1018.53
2018-01-28T02:16:50.237Z,1018.55
2018-01-28T02:17:25.442Z,1018.50
2018-01-28T02:18:00.754Z,1018.58
2018-01-28T02:18:35.857Z,1018.55
2018-01-28T02:19:10.964Z,1018.55
2018-01-28T02:19:46.378Z,1018.54
2018-01-28T02:20:21.734Z,1018.62
2018-01-28T02:20:56.805Z,1018.66
2018-01-28T02:21:32.142Z,1018.57
2018-01-28T02:22:07.487Z,1018.57
2018-01-28T02:22:42.797Z,1018.65
2018-01-28T02:23:17.902Z,1018.62
2018-01-28T02:23:53.314Z,1018.57
2018-01-28T02:24:28.619Z,1018.51
2018-01-28T02:25:04.429Z,1018.48
2018-01-28T02:25:40.138Z,1018.48
2018-01-28T02:26:15.377Z,1018.58
2018-01-28T02:26:50.616Z,1018.60
2018-01-28T02:27:26.149Z,1018.60
2018-01-28T02:28:01.559Z,1018.49
2018-01-28T02:28:37.070Z,1018.42
2018-01-28T02:29:12.486Z,1018.55
2018-01-28T02:29:47.906Z,1018.53
2018-01-28T02:30:23.118Z,1018.63
2018-01-28T02:30:58.531Z,1018.59
2018-01-28T02:31:33.535Z,1018.47
2018-01-28T02:32:09.173Z,1018.55
2018-01-28T02:32:44.606Z,1018.59
2018-01-28T02:33:20.054Z,1018.54
2018-01-28T02:33:55.403Z,1018.61
2018-01-28T02:34:30.749Z,1018.61
2018-01-28T02:35:06.408Z,1018.69
2018-01-28T02:35:42.010Z,1018.64
2018-01-28T02:36:17.133Z,1018.65
2018-01-28T02:36:52.756Z,1018.62
2018-01-28T02:37:28.306Z,1018.66
2018-01-28T02:38:04.017Z,1018.62
2018-01-28T02:38:39.212Z,1018.67
2018-01-28T02:39:14.855Z,1018.75
2018-01-28T02:39:50.154Z,1018.83
2018-01-28T02:40:25.569Z,1018.74
2018-01-28T02:41:00.876Z,1018.67
2018-01-28T02:41:36.600Z,1018.65
2018-01-28T02:42:12.040Z,1018.59
2018-01-28T02:42:47.415Z,1018.60
2018-01-28T02:43:22.619Z,1018.62
2018-01-28T02:43:58.032Z,1018.76
2018-01-28T02:44:33.847Z,1018.80
2018-01-28T02:45:09.353Z,1018.74
2018-01-28T02:45:45.367Z,1018.76
2018-01-28T02:46:20.673Z,1018.81
2018-01-28T02:46:56.079Z,1018.83
2018-01-28T02:47:31.634Z,1018.94
2018-01-28T02:48:06.974Z,1018.82
2018-01-28T02:48:42.378Z,1018.88
2018-01-28T02:49:17.585Z,1018.86
2018-01-28T02:49:52.800Z,1018.97
2018-01-28T02:50:28.204Z,1018.86
2018-01-28T02:51:03.628Z,1018.83
2018-01-28T02:51:38.850Z,1018.75
2018-01-28T02:52:14.253Z,1018.74
2018-01-28T02:52:49.596Z,1018.78
2018-01-28T02:53:25.043Z,1018.73
2018-01-28T02:54:00.351Z,1018.68
2018-01-28T02:54:35.662Z,1018.71
2018-01-28T02:55:11.271Z,1018.72
2018-01-28T02:55:46.983Z,1018.52
2018-01-28T02:56:21.986Z,1018.61
2018-01-28T02:56:57.399Z,1018.77
2018-01-28T02:57:32.609Z,1018.80
2018-01-28T02:58:08.008Z,1018.89
2018-01-28T02:58:43.453Z,1018.72
2018-01-28T02:59:18.873Z,1018.77
2018-01-28T02:59:54.072Z,1018.72
2018-01-28T03:00:29.494Z,1018.82
2018-01-28T03:01:04.702Z,1018.90
2018-01-28T03:01:40.013Z,1018.95
2018-01-28T03:02:15.350Z,1018.80
2018-01-28T03:02:50.556Z,1018.85
2018-01-28T03:03:25.871Z,1018.81
2018-01-28T03:04:01.507Z,1018.79
2018-01-28T03:04:36.819Z,1018.98
2018-01-28T03:05:12.431Z,1018.96
2018-01-28T03:05:47.733Z,1018.97
2018-01-28T03:06:22.944Z,1018.91
2018-01-28T03:06:58.562Z,1018.95
2018-01-28T03:07:33.701Z,1018.85
2018-01-28T03:08:09.307Z,1018.78
2018-01-28T03:08:44.611Z,1018.73
2018-01-28T03:09:19.951Z,1018.76
2018-01-28T03:09:55.260Z,1018.74
2018-01-28T03:10:30.568Z,1018.74
2018-01-28T03:11:06.083Z,1018.85
2018-01-28T03:11:41.290Z,1018.85
2018-01-28T03:12:16.606Z,1018.81
2018-01-28T03:12:51.942Z,1018.82
2018-01-28T03:13:27.144Z,1018.88
2018-01-28T03:14:02.756Z,1018.90
2018-01-28T03:14:38.192Z,1019.00
2018-01-28T03:15:13.450Z,1018.90
2018-01-28T03:15:48.755Z,1018.93
2018-01-28T03:16:23.761Z,1018.91
2018-01-28T03:16:58.968Z,1018.97
2018-01-28T03:17:34.575Z,1019.02
2018-01-28T03:18:09.814Z,1019.02
2018-01-28T03:18:44.818Z,1019.02
2018-01-28T03:19:20.027Z,1019.03
2018-01-28T03:19:55.383Z,1019.00
2018-01-28T03:20:30.592Z,1018.99
2018-01-28T03:21:05.811Z,1019.07
2018-01-28T03:21:41.114Z,1019.10
2018-01-28T03:22:16.421Z,1019.14
2018-01-28T03:22:51.934Z,1019.11
2018-01-28T03:23:27.283Z,1019.09
2018-01-28T03:24:02.487Z,1019.10
2018-01-28T03:24:37.700Z,1019.15
2018-01-28T03:25:13.134Z,1019.11
2018-01-28T03:25:48.551Z,1019.13
2018-01-28T03:26:23.862Z,1019.13
2018-01-28T03:26:59.472Z,1019.16
2018-01-28T03:27:34.785Z,1019.18
2018-01-28T03:28:10.295Z,1019.17
2018-01-28T03:28:46.238Z,1019.17
2018-01-28T03:29:21.445Z,1019.21
2018-01-28T03:29:56.567Z,1019.13
2018-01-28T03:30:32.010Z,1019.22
2018-01-28T03:31:07.229Z,1019.17
2018-01-28T03:31:42.536Z,1019.11
2018-01-28T03:32:17.947Z,1019.04
2018-01-28T03:32:53.173Z,1019.03
2018-01-28T03:33:28.472Z,1019.03
2018-01-28T03:34:03.696Z,1019.01
2018-01-28T03:34:39.295Z,1019.06
2018-01-28T03:35:14.895Z,1019.04
2018-01-28T03:35:50.328Z,1018.92
2018-01-28T03:36:25.635Z,1018.94
2018-01-28T03:37:00.955Z,1018.88
2018-01-28T03:37:36.273Z,1018.82
2018-01-28T03:38:11.700Z,1018.86
2018-01-28T03:38:46.813Z,1018.82
2018-01-28T03:39:22.021Z,1018.86
2018-01-28T03:39:57.525Z,1018.83
2018-01-28T03:40:32.832Z,1018.79
2018-01-28T03:41:08.270Z,1018.94
2018-01-28T03:41:43.387Z,1018.84
2018-01-28T03:42:18.594Z,1018.91
2018-01-28T03:42:54.100Z,1019.08
2018-01-28T03:43:29.439Z,1019.02
2018-01-28T03:44:04.650Z,1019.03
2018-01-28T03:44:40.271Z,1019.12
2018-01-28T03:45:15.371Z,1019.15
2018-01-28T03:45:50.582Z,1019.10
2018-01-28T03:46:26.047Z,1019.25
2018-01-28T03:47:01.457Z,1019.13
2018-01-28T03:47:37.073Z,1019.14
2018-01-28T03:48:12.388Z,1019.21
2018-01-28T03:48:47.829Z,1019.11
2018-01-28T03:49:23.348Z,1019.09
2018-01-28T03:49:58.756Z,1019.09
2018-01-28T03:50:34.362Z,1019.08
2018-01-28T03:51:09.967Z,1019.14
2018-01-28T03:51:45.204Z,1019.06
2018-01-28T03:52:20.311Z,1019.02
2018-01-28T03:52:55.418Z,1019.04
2018-01-28T03:53:30.830Z,1018.97
2018-01-28T03:54:06.286Z,1019.00
2018-01-28T03:54:41.584Z,1018.99
2018-01-28T03:55:17.286Z,1019.15
2018-01-28T03:55:52.692Z,1019.08
2018-01-28T03:56:28.229Z,1018.99
2018-01-28T03:57:03.589Z,1018.96
2018-01-28T03:57:39.806Z,1018.85
2018-01-28T03:58:15.131Z,1019.02
2018-01-28T03:58:50.538Z,1019.01
2018-01-28T03:59:25.652Z,1019.02
2018-01-28T04:00:00.863Z,1018.90
2018-01-28T04:00:36.676Z,1018.93
2018-01-28T04:01:12.481Z,1018.90
2018-01-28T04:01:47.893Z,1018.95
2018-01-28T04:02:23.120Z,1018.91
2018-01-28T04:02:58.340Z,1019.13
2018-01-28T04:03:34.001Z,1018.84
2018-01-28T04:04:09.315Z,1018.81
2018-01-28T04:04:48.050Z,1018.95
2018-01-28T04:05:23.557Z,1018.93
2018-01-28T04:05:59.074Z,1018.96
2018-01-28T04:06:34.484Z,1019.01
2018-01-28T04:07:10.096Z,1019.06
2018-01-28T04:07:45.462Z,1018.99
2018-01-28T04:08:20.777Z,1018.98
2018-01-28T04:08:56.086Z,1018.88
2018-01-28T04:09:31.201Z,1018.87
2018-01-28T04:10:06.320Z,1018.81
2018-01-28T04:10:41.524Z,1018.89
2018-01-28T04:11:16.936Z,1018.83
2018-01-28T04:11:52.344Z,1018.87
2018-01-28T04:12:27.556Z,1018.88
2018-01-28T04:13:03.019Z,1018.96
2018-01-28T04:13:38.423Z,1018.89
2018-01-28T04:14:14.130Z,1018.98
2018-01-28T04:14:49.435Z,1018.92
2018-01-28T04:15:24.644Z,1019.01
2018-01-28T04:15:59.849Z,1018.98
2018-01-28T04:16:35.266Z,1018.97
2018-01-28T04:17:10.372Z,1019.03
2018-01-28T04:17:45.685Z,1019.07
2018-01-28T04:18:20.954Z,1019.08
2018-01-28T04:18:56.261Z,1019.22
2018-01-28T04:19:31.670Z,1019.17
2018-01-28T04:20:06.783Z,1019.21
2018-01-28T04:20:42.100Z,1019.21
2018-01-28T04:21:17.502Z,1019.15
2018-01-28T04:21:52.701Z,1019.21
2018-01-28T04:22:27.810Z,1019.18
2018-01-28T04:23:03.236Z,1019.36
2018-01-28T04:23:38.604Z,1019.38
2018-01-28T04:24:13.805Z,1019.24
2018-01-28T04:24:49.114Z,1019.34
2018-01-28T04:25:24.416Z,1019.41
2018-01-28T04:25:59.725Z,1019.42
2018-01-28T04:26:35.033Z,1019.42
2018-01-28T04:27:10.261Z,1019.45
2018-01-28T04:27:45.564Z,1019.47
2018-01-28T04:28:20.869Z,1019.51
2018-01-28T04:28:56.130Z,1019.51
2018-01-28T04:29:32.043Z,1019.43
2018-01-28T04:30:07.347Z,1019.35
2018-01-28T04:30:42.957Z,1019.33
2018-01-28T04:31:18.266Z,1019.35
2018-01-28T04:31:53.672Z,1019.29
2018-01-28T04:32:29.088Z,1019.20
2018-01-28T04:33:04.903Z,1019.34
2018-01-28T04:33:40.115Z,1019.21
2018-01-28T04:34:15.491Z,1019.27
2018-01-28T04:34:50.997Z,1019.20
2018-01-28T04:35:26.414Z,1019.26
2018-01-28T04:36:01.623Z,1019.26
2018-01-28T04:36:37.107Z,1019.15
2018-01-28T04:37:12.272Z,1019.16
2018-01-28T04:37:47.683Z,1019.10
2018-01-28T04:38:23.301Z,1019.19
2018-01-28T04:38:59.215Z,1019.09
2018-01-28T04:39:34.558Z,1019.15
2018-01-28T04:40:09.964Z,1019.17
2018-01-28T04:40:45.271Z,1019.18
2018-01-28T04:41:20.677Z,1019.23
2018-01-28T04:41:55.993Z,1019.14
2018-01-28T04:42:31.496Z,1019.19
2018-01-28T04:43:06.807Z,1019.17
2018-01-28T04:43:42.141Z,1019.24
2018-01-28T04:44:17.751Z,1019.31
2018-01-28T04:44:53.190Z,1019.32
2018-01-28T04:45:28.302Z,1019.25
2018-01-28T04:46:03.430Z,1019.35
2018-01-28T04:46:39.035Z,1019.47
2018-01-28T04:47:14.461Z,1019.48
2018-01-28T04:47:49.580Z,1019.38
2018-01-28T04:48:24.898Z,1019.44
2018-01-28T04:49:00.135Z,1019.33
2018-01-28T04:49:35.448Z,1019.42
2018-01-28T04:50:10.789Z,1019.47
2018-01-28T04:50:46.209Z,1019.48
2018-01-28T04:51:21.625Z,1019.35
2018-01-28T04:51:57.027Z,1019.41
2018-01-28T04:52:32.641Z,1019.44
2018-01-28T04:53:07.748Z,1019.48
2018-01-28T04:53:43.064Z,1019.47
2018-01-28T04:54:18.300Z,1019.51
2018-01-28T04:54:53.710Z,1019.50
2018-01-28T04:55:29.273Z,1019.51
2018-01-28T04:56:04.680Z,1019.47
2018-01-28T04:56:39.997Z,1019.57
2018-01-28T04:57:15.499Z,1019.63
2018-01-28T04:57:50.716Z,1019.64
2018-01-28T04:58:26.127Z,1019.58
2018-01-28T04:59:01.437Z,1019.54
2018-01-28T04:59:36.672Z,1019.64
2018-01-28T05:00:11.883Z,1019.59
2018-01-28T05:00:47.128Z,1019.56
2018-01-28T05:01:22.335Z,1019.48
2018-01-28T05:01:57.842Z,1019.59
2018-01-28T05:02:33.452Z,1019.56
2018-01-28T05:03:08.576Z,1019.58
2018-01-28T05:03:43.792Z,1019.58
2018-01-28T05:04:19.399Z,1019.40
2018-01-28T05:04:55.012Z,1019.35
2018-01-28T05:05:30.419Z,1019.46
2018-01-28T05:06:05.690Z,1019.46
2018-01-28T05:06:40.957Z,1019.46
2018-01-28T05:07:16.066Z,1019.44
2018-01-28T05:07:51.278Z,1019.46
2018-01-28T05:08:26.682Z,1019.47
2018-01-28T05:09:02.299Z,1019.44
2018-01-28T05:09:37.710Z,1019.43
2018-01-28T05:10:13.107Z,1019.45
2018-01-28T05:10:48.321Z,1019.41
2018-01-28T05:11:23.769Z,1019.49
2018-01-28T05:11:58.977Z,1019.50
2018-01-28T05:12:34.588Z,1019.43
2018-01-28T05:13:10.099Z,1019.53
2018-01-28T05:13:45.508Z,1019.58
2018-01-28T05:14:21.145Z,1019.58
2018-01-28T05:14:56.547Z,1019.67
2018-01-28T05:15:31.969Z,1019.61
2018-01-28T05:16:07.690Z,1019.60
2018-01-28T05:16:43.324Z,1019.65
2018-01-28T05:17:18.235Z,1019.67
2018-01-28T05:17:53.537Z,1019.60
2018-01-28T05:18:29.254Z,1019.64
2018-01-28T05:19:05.567Z,1019.61
2018-01-28T05:19:40.904Z,1019.56
2018-01-28T05:20:16.148Z,1019.59
2018-01-28T05:20:51.357Z,1019.53
2018-01-28T05:21:26.666Z,1019.53
2018-01-28T05:22:01.811Z,1019.52
2018-01-28T05:22:37.412Z,1019.53
2018-01-28T05:23:12.822Z,1019.55
2018-01-28T05:23:47.843Z,1019.55
2018-01-28T05:24:23.652Z,1019.54
2018-01-28T05:24:59.159Z,1019.64
2018-01-28T05:25:34.372Z,1019.67
2018-01-28T05:26:09.784Z,1019.61
2018-01-28T05:26:45.286Z,1019.63
2018-01-28T05:27:20.525Z,1019.62
2018-01-28T05:27:56.028Z,1019.62
2018-01-28T05:28:31.436Z,1019.59
2018-01-28T05:29:06.748Z,1019.56
2018-01-28T05:29:42.066Z,1019.58
2018-01-28T05:30:17.197Z,1019.57
2018-01-28T05:30:52.406Z,1019.47
2018-01-28T05:31:27.718Z,1019.53
2018-01-28T05:32:03.217Z,1019.53
2018-01-28T05:32:38.652Z,1019.55
2018-01-28T05:33:13.956Z,1019.58
2018-01-28T05:33:49.382Z,1019.52
2018-01-28T05:34:24.917Z,1019.54
2018-01-28T05:35:00.526Z,1019.48
2018-01-28T05:35:35.834Z,1019.53
2018-01-28T05:36:11.238Z,1019.51
2018-01-28T05:36:46.754Z,1019.46
2018-01-28T05:37:22.060Z,1019.43
2018-01-28T05:37:57.397Z,1019.37
2018-01-28T05:38:32.701Z,1019.36
2018-01-28T05:39:08.110Z,1019.22
2018-01-28T05:39:43.552Z,1019.30
2018-01-28T05:40:18.954Z,1019.25
2018-01-28T05:40:54.070Z,1019.26
2018-01-28T05:41:29.181Z,1019.32
2018-01-28T05:42:04.900Z,1019.33
2018-01-28T05:42:40.404Z,1019.33
2018-01-28T05:43:15.751Z,1019.44
2018-01-28T05:43:51.051Z,1019.49
2018-01-28T05:44:26.273Z,1019.52
2018-01-28T05:45:02.178Z,1019.55
2018-01-28T05:45:37.487Z,1019.55
2018-01-28T05:46:14.102Z,1019.62
2018-01-28T05:46:49.505Z,1019.54
2018-01-28T05:47:24.919Z,1019.70
2018-01-28T05:48:00.432Z,1019.67
2018-01-28T05:48:35.897Z,1019.73
2018-01-28T05:49:11.036Z,1019.74
2018-01-28T05:49:46.141Z,1019.69
2018-01-28T05:50:21.461Z,1019.67
2018-01-28T05:50:56.565Z,1019.65
2018-01-28T05:51:31.937Z,1019.62
2018-01-28T05:52:07.090Z,1019.67
2018-01-28T05:52:42.715Z,1019.65
2018-01-28T05:53:17.932Z,1019.73
2018-01-28T05:53:53.067Z,1019.81
2018-01-28T05:54:28.404Z,1019.77
2018-01-28T05:55:03.610Z,1019.87
2018-01-28T05:55:39.221Z,1019.96
2018-01-28T05:56:14.637Z,1019.95
2018-01-28T05:56:49.850Z,1020.00
2018-01-28T05:57:25.277Z,1020.02
2018-01-28T05:58:00.583Z,1020.03
2018-01-28T05:58:36.095Z,1020.04
2018-01-28T05:59:11.327Z,1020.01
2018-01-28T05:59:46.469Z,1020.04
2018-01-28T06:00:21.869Z,1020.03
2018-01-28T06:00:57.293Z,1020.06
2018-01-28T06:01:34.612Z,1020.07
2018-01-28T06:02:10.027Z,1020.01
2018-01-28T06:02:45.437Z,1020.09
2018-01-28T06:03:20.944Z,1020.07
2018-01-28T06:03:56.052Z,1019.84
2018-01-28T06:04:31.481Z,1020.09
2018-01-28T06:05:07.023Z,1020.07
2018-01-28T06:05:44.239Z,1020.15
2018-01-28T06:06:19.442Z,1020.12
2018-01-28T06:06:56.154Z,1020.14
2018-01-28T06:07:31.268Z,1020.09
2018-01-28T06:08:06.467Z,1020.06
2018-01-28T06:08:41.878Z,1020.11
2018-01-28T06:09:17.219Z,1020.16
2018-01-28T06:09:52.571Z,1020.12
2018-01-28T06:10:27.858Z,1020.12
2018-01-28T06:11:03.155Z,1020.14
2018-01-28T06:11:38.368Z,1020.16
2018-01-28T06:12:13.966Z,1020.23
2018-01-28T06:12:52.378Z,1020.20
2018-01-28T06:13:27.475Z,1020.25
2018-01-28T06:14:02.782Z,1020.32
2018-01-28T06:14:38.584Z,1020.28
2018-01-28T06:15:14.013Z,1020.28
2018-01-28T06:15:50.926Z,1020.33
2018-01-28T06:16:26.242Z,1020.31
2018-01-28T06:17:03.243Z,1020.32
2018-01-28T06:17:39.242Z,1020.31
2018-01-28T06:18:14.546Z,1020.28
2018-01-28T06:18:50.180Z,1020.30
2018-01-28T06:19:25.584Z,1020.24
2018-01-28T06:20:00.691Z,1020.27
2018-01-28T06:20:36.139Z,1020.27
2018-01-28T06:21:11.244Z,1020.26
2018-01-28T06:21:46.448Z,1020.19
2018-01-28T06:22:21.767Z,1020.26
2018-01-28T06:22:57.272Z,1020.25
2018-01-28T06:23:32.581Z,1020.25
2018-01-28T06:24:07.913Z,1020.25
2018-01-28T06:24:45.823Z,1020.20
2018-01-28T06:25:21.248Z,1020.24
2018-01-28T06:25:59.884Z,1020.32
2018-01-28T06:26:35.304Z,1020.25
2018-01-28T06:27:10.708Z,1020.26
2018-01-28T06:27:46.214Z,1020.28
2018-01-28T06:28:21.552Z,1020.17
2018-01-28T06:28:56.956Z,1020.24
2018-01-28T06:29:32.375Z,1020.25
2018-01-28T06:30:07.806Z,1020.26
2018-01-28T06:30:43.016Z,1020.26
2018-01-28T06:31:18.649Z,1020.32
2018-01-28T06:31:53.670Z,1020.23
2018-01-28T06:32:28.895Z,1020.26
2018-01-28T06:33:05.044Z,1020.23
2018-01-28T06:33:40.455Z,1020.18
2018-01-28T06:34:15.669Z,1020.11
2018-01-28T06:34:51.184Z,1020.17
2018-01-28T06:35:26.710Z,1020.21
2018-01-28T06:36:02.922Z,1020.23
2018-01-28T06:36:38.448Z,1020.22
2018-01-28T06:37:13.988Z,1020.27
2018-01-28T06:37:49.307Z,1020.34
2018-01-28T06:38:24.501Z,1020.32
2018-01-28T06:38:59.813Z,1020.39
2018-01-28T06:39:35.214Z,1020.36
2018-01-28T06:40:10.843Z,1020.36
2018-01-28T06:40:46.244Z,1020.35
2018-01-28T06:41:21.832Z,1020.33
2018-01-28T06:41:57.277Z,1020.37
2018-01-28T06:42:32.383Z,1020.40
2018-01-28T06:43:10.020Z,1020.35
2018-01-28T06:43:46.728Z,1020.36
2018-01-28T06:44:22.157Z,1020.29
2018-01-28T06:44:57.768Z,1020.39
2018-01-28T06:45:33.282Z,1020.27
2018-01-28T06:46:08.691Z,1020.21
2018-01-28T06:46:43.931Z,1020.15
2018-01-28T06:47:19.670Z,1020.17
2018-01-28T06:47:55.078Z,1020.23
2018-01-28T06:48:30.399Z,1020.26
2018-01-28T06:49:05.805Z,1020.20
2018-01-28T06:49:42.820Z,1020.20
2018-01-28T06:50:18.326Z,1020.19
2018-01-28T06:50:56.607Z,1020.27
2018-01-28T06:51:32.250Z,1020.23
2018-01-28T06:52:08.011Z,1020.26
2018-01-28T06:52:43.321Z,1020.27
2018-01-28T06:53:18.824Z,1020.28
2018-01-28T06:53:55.063Z,1020.23
2018-01-28T06:54:30.393Z,1020.24
2018-01-28T06:55:05.598Z,1020.29
2018-01-28T06:55:42.440Z,1020.24
2018-01-28T06:56:18.157Z,1020.34
2018-01-28T06:56:53.487Z,1020.33
2018-01-28T06:57:29.123Z,1020.45
2018-01-28T06:58:04.599Z,1020.38
2018-01-28T06:58:39.795Z,1020.42
2018-01-28T06:59:15.014Z,1020.50
2018-01-28T06:59:50.134Z,1020.50
2018-01-28T07:00:25.446Z,1020.48
2018-01-28T07:01:00.949Z,1020.58
2018-01-28T07:01:36.513Z,1020.45
2018-01-28T07:02:11.977Z,1020.55
2018-01-28T07:02:48.514Z,1020.52
2018-01-28T07:03:23.819Z,1020.57
2018-01-28T07:03:59.105Z,1020.57
2018-01-28T07:04:34.614Z,1020.56
2018-01-28T07:05:09.800Z,1020.52
2018-01-28T07:05:45.296Z,1020.53
2018-01-28T07:06:20.531Z,1020.52
2018-01-28T07:06:56.076Z,1020.53
2018-01-28T07:07:32.635Z,1020.57
2018-01-28T07:08:08.433Z,1020.58
2018-01-28T07:08:43.824Z,1020.61